createdAt,value
2022-12-13T00:01:45.999Z,86.77
2022-12-13T00:04:13.723Z,86.74
2022-12-13T00:06:40.593Z,86.44
2022-12-13T00:09:07.384Z,86.16
2022-12-13T00:11:34.317Z,86.07
2022-12-13T00:14:01.910Z,86.71
2022-12-13T00:16:28.898Z,86.94
2022-12-13T00:18:57.942Z,86.76
2022-12-13T00:21:28.299Z,86.64
2022-12-13T00:23:55.780Z,85.90
2022-12-13T00:26:26.250Z,85.85
2022-12-13T00:28:54.092Z,85.43
2022-12-13T00:34:10.406Z,85.84
2022-12-13T00:36:37.602Z,85.18
2022-12-13T00:39:04.635Z,85.54
2022-12-13T00:41:33.931Z,85.40
2022-12-13T00:44:02.062Z,85.23
2022-12-13T00:46:29.236Z,84.83
2022-12-13T00:48:58.275Z,84.36
2022-12-13T00:51:26.477Z,84.93
2022-12-13T00:53:53.928Z,84.75
2022-12-13T00:56:25.884Z,84.52
2022-12-13T00:58:53.878Z,84.61
2022-12-13T01:01:24.535Z,84.27
2022-12-13T01:03:53.495Z,83.36
2022-12-13T01:06:23.573Z,83.70
2022-12-13T01:08:50.546Z,84.06
2022-12-13T01:11:18.726Z,84.26
2022-12-13T01:13:45.632Z,84.48
2022-12-13T01:16:13.777Z,84.91
2022-12-13T01:18:41.342Z,85.21
2022-12-13T01:21:12.855Z,86.32
2022-12-13T01:23:40.091Z,86.70
2022-12-13T01:26:11.073Z,87.00
2022-12-13T01:28:38.428Z,87.36
2022-12-13T01:31:09.412Z,87.38
2022-12-13T01:33:37.128Z,87.70
2022-12-13T01:36:06.170Z,87.46
2022-12-13T01:38:37.701Z,87.76
2022-12-13T01:41:08.901Z,87.64
2022-12-13T01:43:44.924Z,87.46
2022-12-13T01:46:12.888Z,85.94
2022-12-13T01:48:59.692Z,85.40
2022-12-13T01:51:33.185Z,85.14
2022-12-13T01:54:03.147Z,85.28
2022-12-13T01:56:36.772Z,85.39
2022-12-13T01:59:06.746Z,86.08
2022-12-13T02:01:34.158Z,86.34
2022-12-13T02:04:01.001Z,87.12
2022-12-13T02:06:35.745Z,87.00
2022-12-13T02:09:05.093Z,87.02
2022-12-13T02:11:33.785Z,87.25
2022-12-13T02:14:00.729Z,87.42
2022-12-13T02:16:27.430Z,87.44
2022-12-13T02:19:50.429Z,87.42
2022-12-13T02:22:40.191Z,86.92
2022-12-13T02:25:40.489Z,86.43
2022-12-13T02:28:32.438Z,87.08
2022-12-13T02:31:15.509Z,87.60
2022-12-13T02:33:55.618Z,88.26
2022-12-13T02:36:51.739Z,87.90
2022-12-13T02:39:30.520Z,87.79
2022-12-13T02:42:04.581Z,87.72
2022-12-13T02:44:43.848Z,87.65
2022-12-13T02:47:22.268Z,88.15
2022-12-13T02:49:57.341Z,87.73
2022-12-13T02:52:28.035Z,87.98
2022-12-13T02:54:56.146Z,88.17
2022-12-13T02:57:41.403Z,88.09
2022-12-13T03:00:11.671Z,88.03
2022-12-13T03:02:46.015Z,88.35
2022-12-13T03:05:34.645Z,87.92
2022-12-13T03:08:21.259Z,88.11
2022-12-13T03:10:59.209Z,88.00
2022-12-13T03:13:37.320Z,87.69
2022-12-13T03:16:11.697Z,87.99
2022-12-13T03:18:39.542Z,88.45
2022-12-13T03:21:09.032Z,88.17
2022-12-13T03:23:36.925Z,87.37
2022-12-13T03:26:11.162Z,86.84
2022-12-13T03:28:38.792Z,87.30
2022-12-13T03:31:05.820Z,87.06
2022-12-13T03:33:32.997Z,87.20
2022-12-13T03:36:01.544Z,87.31
2022-12-13T03:38:29.307Z,87.18
2022-12-13T03:40:59.927Z,87.10
2022-12-13T03:43:26.859Z,87.32
2022-12-13T03:45:54.580Z,87.74
2022-12-13T03:48:23.386Z,87.51
2022-12-13T03:50:53.338Z,87.26
2022-12-13T03:53:33.100Z,87.73
2022-12-13T03:56:03.065Z,87.87
2022-12-13T03:58:35.855Z,87.87
2022-12-13T04:01:09.745Z,88.36
2022-12-13T04:03:37.767Z,87.87
2022-12-13T04:06:05.276Z,87.99
2022-12-13T04:08:32.764Z,87.87
2022-12-13T04:10:59.585Z,88.54
2022-12-13T04:13:32.440Z,89.01
2022-12-13T04:15:59.676Z,89.30
2022-12-13T04:18:26.518Z,89.36
2022-12-13T04:20:53.359Z,89.33
2022-12-13T04:23:20.048Z,89.73
2022-12-13T04:25:46.941Z,89.48
2022-12-13T04:28:22.378Z,89.35
2022-12-13T04:30:53.749Z,89.07
2022-12-13T04:33:22.342Z,88.66
2022-12-13T04:35:50.015Z,88.77
2022-12-13T04:38:17.247Z,89.07
2022-12-13T04:40:44.107Z,89.38
2022-12-13T04:43:10.831Z,89.30
2022-12-13T04:45:37.550Z,88.20
2022-12-13T04:48:04.707Z,87.52
2022-12-13T04:50:31.412Z,86.97
2022-12-13T04:52:58.152Z,87.46
2022-12-13T04:55:24.944Z,87.01
2022-12-13T04:57:52.030Z,87.58
2022-12-13T05:00:20.259Z,87.44
2022-12-13T05:02:47.314Z,87.28
2022-12-13T05:05:15.040Z,87.92
2022-12-13T05:07:42.995Z,88.63
2022-12-13T05:10:11.721Z,88.17
2022-12-13T05:12:38.622Z,87.98
2022-12-13T05:15:06.417Z,87.96
2022-12-13T05:17:33.732Z,87.41
2022-12-13T05:20:00.463Z,86.50
2022-12-13T05:22:27.177Z,87.03
2022-12-13T05:24:53.952Z,87.40
2022-12-13T05:27:24.748Z,87.13
2022-12-13T05:30:03.037Z,87.36
2022-12-13T05:32:43.969Z,87.34
2022-12-13T05:35:13.722Z,87.51
2022-12-13T05:37:40.812Z,87.71
2022-12-13T05:40:08.560Z,88.06
2022-12-13T05:42:38.713Z,88.49
2022-12-13T05:45:09.241Z,88.76
2022-12-13T05:47:35.975Z,88.75
2022-12-13T05:50:02.850Z,88.77
2022-12-13T05:52:30.628Z,89.01
2022-12-13T05:55:00.868Z,88.88
2022-12-13T05:57:28.458Z,88.66
2022-12-13T05:59:55.895Z,88.68
2022-12-13T06:02:23.085Z,88.70
2022-12-13T06:04:49.930Z,88.54
2022-12-13T06:07:16.888Z,88.38
2022-12-13T06:09:43.811Z,88.29
2022-12-13T06:12:31.063Z,87.73
2022-12-13T06:15:23.090Z,87.17
2022-12-13T06:17:59.162Z,87.17
2022-12-13T06:20:27.476Z,87.38
2022-12-13T06:22:54.522Z,87.32
2022-12-13T06:25:30.608Z,87.41
2022-12-13T06:28:01.200Z,87.84
2022-12-13T06:30:31.764Z,88.06
2022-12-13T06:32:58.548Z,88.04
2022-12-13T06:35:28.704Z,87.49
2022-12-13T06:38:01.093Z,87.83
2022-12-13T06:40:32.453Z,87.78
2022-12-13T06:42:59.294Z,87.76
2022-12-13T06:45:26.626Z,87.56
2022-12-13T06:47:53.444Z,87.52
2022-12-13T06:50:20.298Z,87.07
2022-12-13T06:52:47.159Z,86.99
2022-12-13T06:55:15.394Z,86.94
2022-12-13T06:57:51.764Z,86.08
2022-12-13T07:00:23.133Z,85.30
2022-12-13T07:02:53.821Z,85.09
2022-12-13T07:05:21.120Z,85.32
2022-12-13T07:07:48.293Z,85.11
2022-12-13T07:10:22.602Z,84.91
2022-12-13T07:12:50.255Z,85.00
2022-12-13T07:15:17.347Z,84.52
2022-12-13T07:17:44.090Z,85.11
2022-12-13T07:20:13.445Z,85.17
2022-12-13T07:22:47.212Z,85.20
2022-12-13T07:25:26.675Z,84.51
2022-12-13T07:28:03.216Z,84.42
2022-12-13T07:30:33.021Z,84.54
2022-12-13T07:33:02.346Z,84.85
2022-12-13T07:35:29.830Z,84.67
2022-12-13T07:37:57.034Z,84.14
2022-12-13T07:40:25.222Z,84.39
2022-12-13T07:42:56.814Z,84.75
2022-12-13T07:45:24.111Z,84.64
2022-12-13T07:47:51.420Z,84.75
2022-12-13T07:50:24.222Z,84.22
2022-12-13T07:52:52.487Z,84.34
2022-12-13T07:55:23.329Z,83.97
2022-12-13T07:58:18.562Z,84.07
2022-12-13T08:00:46.887Z,84.08
2022-12-13T08:03:24.134Z,84.08
2022-12-13T08:06:07.609Z,84.61
2022-12-13T08:08:34.830Z,84.64
2022-12-13T08:11:12.917Z,84.08
2022-12-13T08:13:41.002Z,84.24
2022-12-13T08:16:26.176Z,84.93
2022-12-13T08:19:01.950Z,84.93
2022-12-13T08:24:24.688Z,86.13
2022-12-13T08:26:51.794Z,85.99
2022-12-13T08:29:22.964Z,86.32
2022-12-13T08:32:11.731Z,86.77
2022-12-13T08:34:39.184Z,86.72
2022-12-13T08:37:06.042Z,86.19
2022-12-13T08:39:35.750Z,85.58
2022-12-13T08:42:17.101Z,85.32
2022-12-13T08:44:46.942Z,85.18
2022-12-13T08:47:24.559Z,84.50
2022-12-13T08:49:54.729Z,84.05
2022-12-13T08:52:22.878Z,84.38
2022-12-13T08:54:49.647Z,84.71
2022-12-13T08:57:16.552Z,84.44
2022-12-13T08:59:43.302Z,84.35
2022-12-13T09:02:13.791Z,83.82
2022-12-13T09:04:41.091Z,83.96
2022-12-13T09:07:08.069Z,84.66
2022-12-13T09:09:34.773Z,84.63
2022-12-13T09:12:10.949Z,84.68
2022-12-13T09:14:51.227Z,84.73
2022-12-13T09:17:24.679Z,84.61
2022-12-13T09:19:57.770Z,84.01
2022-12-13T09:22:33.338Z,83.82
2022-12-13T09:25:02.933Z,83.11
2022-12-13T09:27:39.818Z,82.46
2022-12-13T09:30:12.883Z,81.58
2022-12-13T09:32:40.872Z,80.49
2022-12-13T09:35:08.660Z,80.19
2022-12-13T09:37:39.856Z,79.59
2022-12-13T09:40:25.405Z,79.80
2022-12-13T09:43:11.826Z,79.23
2022-12-13T09:45:45.545Z,77.61
2022-12-13T09:48:22.530Z,77.66
2022-12-13T09:50:58.041Z,76.75
2022-12-13T09:53:40.309Z,76.33
2022-12-13T09:56:12.924Z,76.05
2022-12-13T09:58:39.743Z,76.12
2022-12-13T10:01:06.539Z,75.79
2022-12-13T10:03:34.600Z,76.15
2022-12-13T10:06:13.727Z,75.50
2022-12-13T10:08:47.318Z,75.77
2022-12-13T10:11:15.685Z,76.43
2022-12-13T10:14:08.372Z,75.69
2022-12-13T10:16:36.067Z,74.72
2022-12-13T10:19:28.927Z,75.31
2022-12-13T10:22:02.017Z,75.39
2022-12-13T10:24:54.015Z,74.86
2022-12-13T10:27:36.627Z,75.21
2022-12-13T10:30:08.488Z,75.37
2022-12-13T10:32:46.259Z,75.48
2022-12-13T10:35:23.286Z,74.32
2022-12-13T10:37:50.212Z,74.01
2022-12-13T10:40:33.387Z,74.18
2022-12-13T10:43:24.663Z,74.70
2022-12-13T10:45:57.915Z,73.83
2022-12-13T10:48:38.436Z,74.08
2022-12-13T10:51:15.281Z,74.11
2022-12-13T10:53:48.403Z,74.03
2022-12-13T10:56:23.093Z,74.03
2022-12-13T10:59:17.071Z,73.77
2022-12-13T11:01:44.587Z,73.95
2022-12-13T11:04:27.615Z,73.62
2022-12-13T11:06:55.917Z,73.50
2022-12-13T11:09:30.174Z,72.86
2022-12-13T11:12:16.520Z,72.95
2022-12-13T11:14:49.897Z,72.63
2022-12-13T11:17:21.745Z,72.23
2022-12-13T11:19:52.841Z,71.08
2022-12-13T11:22:29.904Z,70.47
2022-12-13T11:25:21.723Z,69.87
2022-12-13T11:28:26.330Z,70.35
2022-12-13T11:31:16.238Z,70.49
2022-12-13T11:34:12.503Z,70.48
2022-12-13T11:36:49.979Z,69.84
2022-12-13T11:39:31.303Z,69.82
2022-12-13T11:42:32.906Z,70.32
2022-12-13T11:45:22.545Z,70.24
2022-12-13T11:48:04.355Z,70.04
2022-12-13T11:50:37.651Z,70.43
2022-12-13T11:53:30.766Z,70.11
2022-12-13T11:56:05.905Z,70.05
2022-12-13T11:59:03.407Z,70.72
2022-12-13T12:01:41.117Z,70.64
2022-12-13T12:04:28.097Z,70.42
2022-12-13T12:07:24.395Z,70.12
2022-12-13T12:09:56.310Z,69.68
2022-12-13T12:12:31.919Z,69.71
2022-12-13T12:15:27.599Z,69.76
2022-12-13T12:17:56.042Z,69.77
2022-12-13T12:20:48.967Z,69.96
2022-12-13T12:23:31.031Z,69.59
2022-12-13T12:26:13.337Z,69.07
2022-12-13T12:28:52.242Z,68.23
2022-12-13T12:31:54.087Z,68.72
2022-12-13T12:34:42.691Z,70.02
2022-12-13T12:37:25.000Z,69.59
2022-12-13T12:40:10.667Z,69.81
2022-12-13T12:43:15.734Z,70.59
2022-12-13T12:46:11.592Z,70.59
2022-12-13T12:49:03.059Z,69.96
2022-12-13T12:51:43.978Z,70.18
2022-12-13T12:54:13.864Z,70.32
2022-12-13T12:57:13.977Z,70.35
2022-12-13T13:00:01.682Z,70.59
2022-12-13T13:02:44.143Z,69.94
2022-12-13T13:05:20.913Z,69.79
2022-12-13T13:08:05.579Z,69.75
2022-12-13T13:10:32.909Z,69.52
2022-12-13T13:13:11.558Z,69.09
2022-12-13T13:15:39.502Z,69.47
2022-12-13T13:18:45.576Z,69.61
2022-12-13T13:21:30.568Z,69.79
2022-12-13T13:24:09.357Z,69.35
2022-12-13T13:26:39.491Z,69.09
2022-12-13T13:29:27.731Z,69.55
2022-12-13T13:32:07.746Z,69.23
2022-12-13T13:34:37.252Z,69.10
2022-12-13T13:37:05.631Z,69.32
2022-12-13T13:39:32.261Z,68.90
2022-12-13T13:42:12.029Z,68.36
2022-12-13T13:44:44.928Z,68.67
2022-12-13T13:47:17.757Z,68.56
2022-12-13T13:50:12.591Z,69.15
2022-12-13T13:53:21.163Z,68.38
2022-12-13T13:56:06.563Z,68.55
2022-12-13T13:59:10.994Z,68.15
2022-12-13T14:02:15.967Z,68.90
2022-12-13T14:04:59.549Z,68.14
2022-12-13T14:07:57.223Z,69.03
2022-12-13T14:10:37.280Z,68.48
2022-12-13T14:13:32.055Z,68.46
2022-12-13T14:16:22.519Z,68.43
2022-12-13T14:19:20.235Z,68.69
2022-12-13T14:22:14.728Z,68.59
2022-12-13T14:25:10.446Z,68.38
2022-12-13T14:28:05.001Z,68.92
2022-12-13T14:30:32.242Z,69.19
2022-12-13T14:32:59.113Z,69.96
2022-12-13T14:35:31.867Z,69.82
2022-12-13T14:38:08.014Z,69.81
2022-12-13T14:40:48.245Z,69.97
2022-12-13T14:43:27.413Z,70.69
2022-12-13T14:45:57.530Z,70.77
2022-12-13T14:48:28.784Z,71.06
2022-12-13T14:50:56.369Z,71.08
2022-12-13T14:53:28.077Z,70.73
2022-12-13T14:56:10.845Z,71.31
2022-12-13T14:59:03.492Z,71.27
2022-12-13T15:01:36.071Z,71.29
2022-12-13T15:04:23.461Z,70.97
2022-12-13T15:06:57.238Z,71.44
2022-12-13T15:09:29.148Z,71.51
2022-12-13T15:12:04.327Z,71.68
2022-12-13T15:14:48.282Z,71.81
2022-12-13T15:17:34.894Z,72.29
2022-12-13T15:20:20.523Z,72.53
2022-12-13T15:22:47.954Z,72.80
2022-12-13T15:25:16.055Z,72.94
2022-12-13T15:27:48.681Z,73.69
2022-12-13T15:30:16.817Z,74.10
2022-12-13T15:33:21.234Z,74.23
2022-12-13T15:35:59.289Z,74.56
2022-12-13T15:38:28.520Z,75.04
2022-12-13T15:40:56.944Z,75.06
2022-12-13T15:43:33.656Z,75.36
2022-12-13T15:46:00.783Z,76.17
2022-12-13T15:48:32.430Z,75.92
2022-12-13T15:51:30.296Z,76.05
2022-12-13T15:54:09.919Z,76.02
2022-12-13T15:56:39.456Z,75.87
2022-12-13T15:59:24.082Z,75.27
2022-12-13T16:01:56.562Z,75.90
2022-12-13T16:04:30.927Z,75.86
2022-12-13T16:06:57.709Z,75.74
2022-12-13T16:09:28.736Z,75.80
2022-12-13T16:12:01.842Z,75.62
2022-12-13T16:14:31.868Z,75.53
2022-12-13T16:17:22.369Z,75.81
2022-12-13T16:19:49.471Z,75.53
2022-12-13T16:22:17.628Z,75.39
2022-12-13T16:24:44.387Z,75.35
2022-12-13T16:27:11.085Z,75.27
2022-12-13T16:29:37.880Z,75.97
2022-12-13T16:32:08.396Z,74.80
2022-12-13T16:34:39.066Z,75.15
2022-12-13T16:40:56.706Z,76.23
2022-12-13T16:43:33.400Z,76.28
2022-12-13T16:47:13.758Z,76.72
2022-12-13T16:48:51.343Z,77.15
2022-12-13T16:51:18.422Z,77.41
2022-12-13T16:53:45.465Z,78.20
2022-12-13T16:56:14.785Z,78.79
2022-12-13T16:58:47.684Z,78.56
2022-12-13T17:01:22.255Z,78.80
2022-12-13T17:03:49.027Z,79.45
2022-12-13T17:06:22.255Z,78.88
2022-12-13T17:08:49.163Z,78.93
2022-12-13T17:11:18.252Z,78.80
2022-12-13T17:13:47.390Z,79.17
2022-12-13T17:16:14.528Z,79.09
2022-12-13T17:18:41.379Z,79.47
2022-12-13T17:21:10.026Z,79.94
2022-12-13T17:23:37.211Z,80.02
2022-12-13T17:26:09.162Z,80.27
2022-12-13T17:28:36.067Z,80.19
2022-12-13T17:31:12.214Z,80.74
2022-12-13T17:33:40.177Z,81.12
2022-12-13T17:36:09.896Z,81.49
2022-12-13T17:38:37.578Z,81.99
2022-12-13T17:41:04.495Z,82.34
2022-12-13T17:43:35.473Z,82.31
2022-12-13T17:46:05.611Z,82.50
2022-12-13T17:48:39.577Z,82.71
2022-12-13T17:51:08.714Z,82.70
2022-12-13T17:53:36.639Z,82.40
2022-12-13T17:56:06.512Z,81.94
2022-12-13T17:58:33.843Z,81.91
2022-12-13T18:01:20.025Z,81.57
2022-12-13T18:03:50.293Z,81.43
2022-12-13T18:06:17.268Z,81.69
2022-12-13T18:08:44.833Z,81.49
2022-12-13T18:11:32.363Z,81.55
2022-12-13T18:14:00.221Z,81.28
2022-12-13T18:16:33.969Z,81.15
2022-12-13T18:19:06.077Z,80.86
2022-12-13T18:21:33.789Z,80.54
2022-12-13T18:24:00.930Z,80.35
2022-12-13T18:26:27.742Z,80.64
2022-12-13T18:28:54.507Z,80.81
2022-12-13T18:31:24.133Z,80.81
2022-12-13T18:33:53.210Z,80.79
2022-12-13T18:36:22.390Z,80.31
2022-12-13T18:38:49.275Z,80.41
2022-12-13T18:41:19.372Z,80.56
2022-12-13T18:43:46.257Z,80.78
2022-12-13T18:46:14.870Z,81.02
2022-12-13T18:48:41.890Z,80.46
2022-12-13T18:51:10.407Z,79.95
2022-12-13T18:53:38.719Z,79.90
2022-12-13T18:56:17.833Z,79.15
2022-12-13T18:58:46.112Z,79.29
2022-12-13T19:01:13.935Z,79.49
2022-12-13T19:03:43.655Z,79.62
2022-12-13T19:06:14.893Z,79.39
2022-12-13T19:08:41.632Z,79.08
2022-12-13T19:11:08.273Z,78.46
2022-12-13T19:13:34.947Z,78.46
2022-12-13T19:16:07.764Z,77.83
2022-12-13T19:18:35.587Z,77.35
2022-12-13T19:21:02.812Z,76.95
2022-12-13T19:23:29.921Z,76.53
2022-12-13T19:25:56.841Z,77.45
2022-12-13T19:28:23.640Z,77.35
2022-12-13T19:30:50.444Z,77.57
2022-12-13T19:33:17.384Z,77.02
2022-12-13T19:35:46.446Z,77.84
2022-12-13T19:38:13.733Z,77.97
2022-12-13T19:40:42.272Z,77.67
2022-12-13T19:43:10.785Z,77.64
2022-12-13T19:45:37.592Z,77.96
2022-12-13T19:48:04.472Z,77.97
2022-12-13T19:50:31.217Z,78.03
2022-12-13T19:52:57.871Z,77.73
2022-12-13T19:55:24.569Z,77.43
2022-12-13T19:57:51.422Z,77.81
2022-12-13T20:00:18.138Z,78.19
2022-12-13T20:02:44.994Z,77.81
2022-12-13T20:05:12.076Z,77.71
2022-12-13T20:07:38.872Z,77.54
2022-12-13T20:10:06.404Z,77.76
2022-12-13T20:12:38.890Z,77.80
2022-12-13T20:15:08.472Z,78.09
2022-12-13T20:17:36.024Z,78.22
2022-12-13T20:20:04.135Z,77.90
2022-12-13T20:22:32.591Z,78.18
2022-12-13T20:24:59.550Z,78.32
2022-12-13T20:27:27.003Z,77.43
2022-12-13T20:29:53.705Z,77.06
2022-12-13T20:32:21.245Z,77.06
2022-12-13T20:34:53.262Z,77.20
2022-12-13T20:37:22.234Z,77.34
2022-12-13T20:39:49.387Z,77.06
2022-12-13T20:42:16.213Z,77.10
2022-12-13T20:44:42.909Z,77.50
2022-12-13T20:47:09.769Z,77.61
2022-12-13T20:49:36.683Z,77.77
2022-12-13T20:52:03.584Z,77.50
2022-12-13T20:54:30.369Z,77.36
2022-12-13T20:56:57.110Z,77.30
2022-12-13T20:59:27.185Z,77.38
2022-12-13T21:01:53.934Z,77.19
2022-12-13T21:04:20.726Z,77.59
2022-12-13T21:06:47.424Z,77.69
2022-12-13T21:09:14.331Z,77.98
2022-12-13T21:11:47.067Z,77.96
2022-12-13T21:14:22.481Z,77.92
2022-12-13T21:16:52.521Z,77.68
2022-12-13T21:19:22.457Z,77.89
2022-12-13T21:21:50.141Z,77.71
2022-12-13T21:24:19.192Z,77.83
2022-12-13T21:26:46.504Z,77.90
2022-12-13T21:29:14.301Z,77.88
2022-12-13T21:31:42.972Z,77.91
2022-12-13T21:34:10.911Z,78.19
2022-12-13T21:36:43.821Z,77.90
2022-12-13T21:39:17.367Z,78.14
2022-12-13T21:41:47.427Z,77.56
2022-12-13T21:44:16.172Z,77.35
2022-12-13T21:49:30.400Z,77.48
2022-12-13T21:51:57.131Z,76.90
2022-12-13T21:54:23.939Z,76.37
2022-12-13T21:57:09.415Z,76.42
2022-12-13T21:59:36.154Z,76.32
2022-12-13T22:02:28.996Z,76.18
2022-12-13T22:04:57.672Z,75.74
2022-12-13T22:07:30.004Z,75.84
2022-12-13T22:09:58.192Z,75.49
2022-12-13T22:12:29.109Z,75.77
2022-12-13T22:14:55.962Z,76.19
2022-12-13T22:17:29.697Z,76.29
2022-12-13T22:20:01.990Z,76.22
2022-12-13T22:22:28.935Z,75.50
2022-12-13T22:24:55.760Z,75.33
2022-12-13T22:27:26.152Z,75.77
2022-12-13T22:29:55.999Z,75.23
2022-12-13T22:32:24.254Z,75.13
2022-12-13T22:34:50.967Z,73.93
2022-12-13T22:37:17.659Z,73.95
2022-12-13T22:39:44.396Z,73.74
2022-12-13T22:42:11.100Z,73.97
2022-12-13T22:44:37.853Z,74.46
2022-12-13T22:47:04.654Z,74.44
2022-12-13T22:49:31.371Z,74.00
2022-12-13T22:51:58.126Z,74.33
2022-12-13T22:54:24.873Z,74.35
2022-12-13T22:56:53.720Z,74.42
2022-12-13T22:59:20.590Z,74.23
2022-12-13T23:01:47.783Z,74.25
2022-12-13T23:04:15.224Z,74.21
2022-12-13T23:06:42.108Z,73.71
2022-12-13T23:09:11.962Z,73.49
2022-12-13T23:11:57.369Z,73.97
2022-12-13T23:14:30.265Z,74.07
2022-12-13T23:16:57.837Z,73.33
2022-12-13T23:19:41.486Z,73.08
2022-12-13T23:22:12.273Z,73.27
2022-12-13T23:24:39.055Z,72.38
2022-12-13T23:27:06.156Z,72.82
2022-12-13T23:29:32.921Z,73.03
2022-12-13T23:31:59.739Z,73.05
2022-12-13T23:34:26.489Z,72.88
2022-12-13T23:36:53.247Z,73.27
2022-12-13T23:39:19.947Z,73.51
2022-12-13T23:41:46.694Z,73.43
2022-12-13T23:44:13.572Z,73.17
2022-12-13T23:46:41.568Z,72.90
2022-12-13T23:49:15.035Z,72.57
2022-12-13T23:51:41.800Z,72.91
2022-12-13T23:54:09.719Z,73.14
2022-12-13T23:56:36.425Z,72.85
2022-12-13T23:59:03.241Z,72.54
